createdAt,value
2024-02-16T00:01:56.573Z,96421.81
2024-02-16T00:04:24.365Z,96425.19
2024-02-16T00:06:52.300Z,96418.59
2024-02-16T00:09:20.272Z,96415.72
2024-02-16T00:11:49.744Z,96409.88
2024-02-16T00:14:17.581Z,96412.97
2024-02-16T00:16:45.430Z,96414.16
2024-02-16T00:19:13.536Z,96408.41
2024-02-16T00:21:43.177Z,96402.63
2024-02-16T00:24:11.589Z,96412.34
2024-02-16T00:26:40.572Z,96413.91
2024-02-16T00:29:10.059Z,96404.44
2024-02-16T00:31:37.938Z,96402.41
2024-02-16T00:34:05.945Z,96397.13
2024-02-16T00:36:35.254Z,96403.81
2024-02-16T00:39:04.709Z,96392.44
2024-02-16T00:41:32.654Z,96395.53
2024-02-16T00:44:00.472Z,96396.63
2024-02-16T00:46:29.727Z,96400.34
2024-02-16T00:48:57.758Z,96393.16
2024-02-16T00:51:27.274Z,96396.28
2024-02-16T00:53:55.477Z,96397.25
2024-02-16T00:56:23.751Z,96391.00
2024-02-16T00:58:51.671Z,96392.78
2024-02-16T01:01:19.640Z,96390.16
2024-02-16T01:03:48.821Z,96386.44
2024-02-16T01:06:17.020Z,96392.78
2024-02-16T01:08:44.924Z,96390.72
2024-02-16T01:11:12.832Z,96395.16
2024-02-16T01:13:41.047Z,96385.69
2024-02-16T01:16:09.415Z,96389.88
2024-02-16T01:18:38.759Z,96388.78
2024-02-16T01:21:08.311Z,96388.88
2024-02-16T01:23:36.223Z,96393.44
2024-02-16T01:26:04.135Z,96396.97
2024-02-16T01:28:31.966Z,96387.22
2024-02-16T01:30:59.769Z,96392.00
2024-02-16T01:33:27.851Z,96394.06
2024-02-16T01:35:55.811Z,96396.44
2024-02-16T01:38:25.194Z,96396.44
2024-02-16T01:40:53.044Z,96397.78
2024-02-16T01:43:21.909Z,96395.97
2024-02-16T01:45:49.818Z,96390.81
2024-02-16T01:48:18.798Z,96392.25
2024-02-16T01:50:47.233Z,96398.13
2024-02-16T01:53:19.599Z,96385.78
2024-02-16T01:55:49.074Z,96381.13
2024-02-16T01:58:17.424Z,96380.59
2024-02-16T02:00:45.395Z,96376.16
2024-02-16T02:03:14.255Z,96378.31
2024-02-16T02:05:46.745Z,96378.41
2024-02-16T02:08:15.688Z,96372.56
2024-02-16T02:10:44.452Z,96377.13
2024-02-16T02:13:13.736Z,96372.78
2024-02-16T02:15:41.678Z,96375.06
2024-02-16T02:18:09.834Z,96367.28
2024-02-16T02:20:37.800Z,96364.50
2024-02-16T02:23:07.110Z,96363.56
2024-02-16T02:25:36.104Z,96371.38
2024-02-16T02:28:04.434Z,96368.97
2024-02-16T02:30:32.357Z,96367.78
2024-02-16T02:33:00.322Z,96369.69
2024-02-16T02:35:28.199Z,96370.41
2024-02-16T02:37:56.055Z,96367.06
2024-02-16T02:40:25.696Z,96356.50
2024-02-16T02:42:53.605Z,96345.81
2024-02-16T02:45:21.518Z,96356.38
2024-02-16T02:47:49.447Z,96352.38
2024-02-16T02:50:17.615Z,96351.44
2024-02-16T02:52:46.831Z,96344.09
2024-02-16T02:55:14.815Z,96346.00
2024-02-16T02:57:44.189Z,96340.34
2024-02-16T03:00:13.325Z,96334.63
2024-02-16T03:02:42.381Z,96330.44
2024-02-16T03:05:10.543Z,96332.63
2024-02-16T03:07:38.841Z,96325.03
2024-02-16T03:10:10.496Z,96325.97
2024-02-16T03:12:38.564Z,96330.09
2024-02-16T03:15:08.974Z,96331.78
2024-02-16T03:17:36.818Z,96342.34
2024-02-16T03:20:05.085Z,96346.56
2024-02-16T03:22:32.908Z,96344.75
2024-02-16T03:25:00.784Z,96349.81
2024-02-16T03:27:28.873Z,96349.09
2024-02-16T03:29:56.860Z,96349.09
2024-02-16T03:32:26.133Z,96348.81
2024-02-16T03:34:54.089Z,96351.84
2024-02-16T03:37:21.985Z,96352.66
2024-02-16T03:39:49.802Z,96349.09
2024-02-16T03:42:18.433Z,96346.56
2024-02-16T03:44:46.307Z,96355.69
2024-02-16T03:47:14.146Z,96342.25
2024-02-16T03:49:45.111Z,96346.22
2024-02-16T03:52:14.459Z,96346.47
2024-02-16T03:54:43.340Z,96354.28
2024-02-16T03:57:13.295Z,96358.47
2024-02-16T03:59:41.246Z,96354.28
2024-02-16T04:02:09.114Z,96353.91
2024-02-16T04:04:37.024Z,96357.38
2024-02-16T04:07:07.883Z,96350.53
2024-02-16T04:09:35.998Z,96352.66
2024-02-16T04:12:04.986Z,96348.75
2024-02-16T04:14:33.681Z,96348.75
2024-02-16T04:17:01.673Z,96360.75
2024-02-16T04:19:29.745Z,96355.34
2024-02-16T04:21:59.776Z,96358.13
2024-02-16T04:24:30.015Z,96361.22
2024-02-16T04:26:58.077Z,96371.16
2024-02-16T04:29:26.009Z,96369.13
2024-02-16T04:31:53.818Z,96365.44
2024-02-16T04:34:21.773Z,96362.56
2024-02-16T04:36:49.827Z,96370.72
2024-02-16T04:39:18.543Z,96370.59
2024-02-16T04:41:47.883Z,96371.69
2024-02-16T04:44:15.711Z,96371.56
2024-02-16T04:46:43.591Z,96380.06
2024-02-16T04:49:11.503Z,96372.31
2024-02-16T04:51:40.790Z,96376.59
2024-02-16T04:54:09.144Z,96375.88
2024-02-16T04:56:37.134Z,96374.34
2024-02-16T04:59:06.378Z,96378.06
2024-02-16T05:01:34.274Z,96368.84
2024-02-16T05:04:03.249Z,96374.59
2024-02-16T05:06:31.580Z,96378.53
2024-02-16T05:08:59.589Z,96374.09
2024-02-16T05:11:28.873Z,96374.94
2024-02-16T05:13:56.822Z,96378.88
2024-02-16T05:16:47.450Z,96377.94
2024-02-16T05:19:15.608Z,96382.13
2024-02-16T05:21:43.827Z,96379.63
2024-02-16T05:24:11.719Z,96388.13
2024-02-16T05:26:39.698Z,96386.19
2024-02-16T05:29:07.543Z,96389.91
2024-02-16T05:31:35.352Z,96394.72
2024-02-16T05:34:04.729Z,96397.88
2024-02-16T05:36:36.916Z,96399.28
2024-02-16T05:39:21.079Z,96395.22
2024-02-16T05:41:49.622Z,96390.63
2024-02-16T05:44:17.573Z,96393.06
2024-02-16T05:46:46.816Z,96390.53
2024-02-16T05:49:17.195Z,96384.91
2024-02-16T05:52:07.444Z,96384.69
2024-02-16T05:54:38.708Z,96388.25
2024-02-16T05:57:10.182Z,96391.97
2024-02-16T05:59:39.036Z,96393.53
2024-02-16T06:02:07.909Z,96390.06
2024-02-16T06:04:37.240Z,96391.63
2024-02-16T06:07:05.531Z,96381.78
2024-02-16T06:09:35.031Z,96393.78
2024-02-16T06:12:05.757Z,96401.69
2024-02-16T06:14:34.300Z,96412.34
2024-02-16T06:17:02.233Z,96412.97
2024-02-16T06:19:30.335Z,96415.63
2024-02-16T06:22:00.095Z,96412.63
2024-02-16T06:24:28.684Z,96414.28
2024-02-16T06:26:57.746Z,96427.81
2024-02-16T06:29:26.022Z,96425.91
2024-02-16T06:31:54.080Z,96422.69
2024-02-16T06:34:22.182Z,96425.53
2024-02-16T06:36:50.646Z,96431.16
2024-02-16T06:39:20.904Z,96424.22
2024-02-16T06:41:50.483Z,96430.59
2024-02-16T06:44:21.825Z,96437.41
2024-02-16T06:46:51.556Z,96438.97
2024-02-16T06:49:19.444Z,96448.19
2024-02-16T06:51:47.266Z,96446.00
2024-02-16T06:54:15.665Z,96454.16
2024-02-16T06:56:45.230Z,96463.03
2024-02-16T06:59:13.242Z,96455.34
2024-02-16T07:01:41.970Z,96459.91
2024-02-16T07:04:10.428Z,96457.97
2024-02-16T07:06:39.540Z,96464.81
2024-02-16T07:09:07.529Z,96466.97
2024-02-16T07:11:36.047Z,96471.41
2024-02-16T07:14:07.770Z,96465.41
2024-02-16T07:16:35.810Z,96480.16
2024-02-16T07:19:03.907Z,96480.03
2024-02-16T07:21:31.941Z,96485.81
2024-02-16T07:23:59.985Z,96482.69
2024-02-16T07:26:27.870Z,96489.16
2024-02-16T07:28:55.723Z,96492.75
2024-02-16T07:31:24.985Z,96487.47
2024-02-16T07:33:54.047Z,96486.53
2024-02-16T07:36:22.055Z,96499.47
2024-02-16T07:38:50.021Z,96495.75
2024-02-16T07:41:18.084Z,96494.69
2024-02-16T07:43:45.994Z,96493.88
2024-02-16T07:46:14.017Z,96497.09
2024-02-16T07:48:43.983Z,96497.28
2024-02-16T07:51:11.971Z,96492.47
2024-02-16T07:53:42.260Z,96492.13
2024-02-16T07:56:10.869Z,96505.16
2024-02-16T07:58:38.781Z,96502.69
2024-02-16T08:01:07.393Z,96498.25
2024-02-16T08:03:35.577Z,96497.28
2024-02-16T08:06:05.091Z,96500.03
2024-02-16T08:08:33.238Z,96505.56
2024-02-16T08:11:01.172Z,96504.59
2024-02-16T08:13:29.193Z,96496.88
2024-02-16T08:15:57.790Z,96503.50
2024-02-16T08:18:25.973Z,96499.50
2024-02-16T08:20:54.102Z,96499.75
2024-02-16T08:23:23.374Z,96508.47
2024-02-16T08:25:51.249Z,96506.88
2024-02-16T08:28:19.564Z,96505.34
2024-02-16T08:30:47.572Z,96509.03
2024-02-16T08:33:15.586Z,96507.41
2024-02-16T08:35:43.679Z,96517.38
2024-02-16T08:38:12.168Z,96513.13
2024-02-16T08:40:42.401Z,96511.06
2024-02-16T08:43:10.347Z,96511.97
2024-02-16T08:45:38.367Z,96518.19
2024-02-16T08:48:06.790Z,96513.53
2024-02-16T08:50:34.746Z,96516.63
2024-02-16T08:53:02.795Z,96523.06
2024-02-16T08:55:30.575Z,96521.84
2024-02-16T08:58:00.204Z,96518.69
2024-02-16T09:00:29.350Z,96522.63
2024-02-16T09:02:59.147Z,96525.84
2024-02-16T09:05:27.264Z,96521.94
2024-02-16T09:07:55.246Z,96531.31
2024-02-16T09:10:23.211Z,96526.34
2024-02-16T09:12:52.973Z,96531.25
2024-02-16T09:15:22.313Z,96530.44
2024-02-16T09:17:50.843Z,96532.69
2024-02-16T09:20:23.369Z,96538.03
2024-02-16T09:22:51.383Z,96542.09
2024-02-16T09:25:19.293Z,96549.69
2024-02-16T09:27:47.197Z,96543.28
2024-02-16T09:30:15.835Z,96546.75
2024-02-16T09:32:45.025Z,96545.66
2024-02-16T09:35:13.227Z,96551.94
2024-02-16T09:37:41.822Z,96551.66
2024-02-16T09:40:11.548Z,96553.19
2024-02-16T09:42:40.363Z,96568.56
2024-02-16T09:45:09.767Z,96561.88
2024-02-16T09:47:41.855Z,96566.66
2024-02-16T09:50:13.650Z,96568.75
2024-02-16T09:52:48.405Z,96565.44
2024-02-16T09:55:17.806Z,96579.66
2024-02-16T09:57:45.856Z,96573.13
2024-02-16T10:00:15.485Z,96564.34
2024-02-16T10:02:44.106Z,96574.16
2024-02-16T10:05:16.182Z,96569.38
2024-02-16T10:07:45.602Z,96584.91
2024-02-16T10:10:24.191Z,96586.72
2024-02-16T10:12:52.577Z,96584.34
2024-02-16T10:15:24.785Z,96587.59
2024-02-16T10:18:02.695Z,96593.00
2024-02-16T10:20:32.510Z,96598.47
2024-02-16T10:23:07.958Z,96603.22
2024-02-16T10:25:36.018Z,96604.63
2024-02-16T10:28:07.928Z,96601.66
2024-02-16T10:30:39.573Z,96604.75
2024-02-16T10:33:08.278Z,96599.91
2024-02-16T10:35:38.691Z,96601.28
2024-02-16T10:38:11.040Z,96607.97
2024-02-16T10:40:40.451Z,96611.91
2024-02-16T10:43:10.395Z,96616.91
2024-02-16T10:45:40.542Z,96620.25
2024-02-16T10:48:09.875Z,96611.31
2024-02-16T10:50:40.102Z,96611.28
2024-02-16T10:53:18.542Z,96611.16
2024-02-16T10:55:46.693Z,96614.06
2024-02-16T10:58:14.604Z,96605.41
2024-02-16T11:00:53.241Z,96610.59
2024-02-16T11:03:25.881Z,96610.56
2024-02-16T11:05:59.198Z,96612.81
2024-02-16T11:08:29.970Z,96607.91
2024-02-16T11:11:03.975Z,96609.56
2024-02-16T11:13:35.795Z,96608.16
2024-02-16T11:16:05.626Z,96606.03
2024-02-16T11:18:39.036Z,96605.63
2024-02-16T11:21:09.295Z,96601.16
2024-02-16T11:23:38.484Z,96595.25
2024-02-16T11:26:10.216Z,96597.34
2024-02-16T11:28:38.148Z,96592.75
2024-02-16T11:31:07.159Z,96591.03
2024-02-16T11:33:35.693Z,96595.34
2024-02-16T11:36:05.134Z,96604.41
2024-02-16T11:38:34.896Z,96602.47
2024-02-16T11:41:05.190Z,96604.16
2024-02-16T11:43:33.930Z,96609.16
2024-02-16T11:46:02.191Z,96597.41
2024-02-16T11:48:32.412Z,96605.94
2024-02-16T11:51:05.609Z,96607.03
2024-02-16T11:53:34.955Z,96602.91
2024-02-16T11:56:02.789Z,96596.00
2024-02-16T11:58:32.439Z,96591.91
2024-02-16T12:01:03.893Z,96601.59
2024-02-16T12:03:32.603Z,96603.06
2024-02-16T12:06:02.534Z,96595.66
2024-02-16T12:08:36.567Z,96600.53
2024-02-16T12:11:05.165Z,96604.53
2024-02-16T12:13:33.073Z,96603.94
2024-02-16T12:16:00.893Z,96604.31
2024-02-16T12:18:30.496Z,96608.50
2024-02-16T12:20:59.945Z,96601.75
2024-02-16T12:23:27.839Z,96599.63
2024-02-16T12:25:57.083Z,96604.78
2024-02-16T12:28:26.936Z,96602.81
2024-02-16T12:30:54.865Z,96601.69
2024-02-16T12:33:23.648Z,96603.19
2024-02-16T12:35:52.046Z,96607.38
2024-02-16T12:38:20.767Z,96605.22
2024-02-16T12:40:48.820Z,96600.44
2024-02-16T12:43:19.787Z,96593.28
2024-02-16T12:45:47.822Z,96606.59
2024-02-16T12:48:16.401Z,96607.28
2024-02-16T12:50:44.438Z,96606.97
2024-02-16T12:53:12.873Z,96610.88
2024-02-16T12:55:40.960Z,96610.56
2024-02-16T12:58:08.964Z,96602.44
2024-02-16T13:00:38.349Z,96607.56
2024-02-16T13:03:06.600Z,96604.78
2024-02-16T13:05:34.500Z,96605.59
2024-02-16T13:08:02.858Z,96607.81
2024-02-16T13:10:31.582Z,96603.31
2024-02-16T13:12:59.721Z,96605.13
2024-02-16T13:15:29.114Z,96603.16
2024-02-16T13:17:59.184Z,96604.53
2024-02-16T13:20:27.286Z,96603.84
2024-02-16T13:22:55.221Z,96606.38
2024-02-16T13:25:23.428Z,96607.88
2024-02-16T13:27:51.378Z,96607.19
2024-02-16T13:30:19.382Z,96608.16
2024-02-16T13:32:47.936Z,96609.53
2024-02-16T13:35:20.857Z,96612.53
2024-02-16T13:37:49.807Z,96610.31
2024-02-16T13:40:18.767Z,96611.47
2024-02-16T13:42:47.133Z,96621.44
2024-02-16T13:45:15.174Z,96618.22
2024-02-16T13:47:43.115Z,96624.44
2024-02-16T13:50:12.202Z,96630.72
2024-02-16T13:52:41.680Z,96630.03
2024-02-16T13:55:10.404Z,96632.69
2024-02-16T13:57:40.430Z,96639.72
2024-02-16T14:00:09.966Z,96640.69
2024-02-16T14:02:41.147Z,96642.22
2024-02-16T14:05:08.944Z,96638.72
2024-02-16T14:07:43.297Z,96644.75
2024-02-16T14:10:19.878Z,96647.47
2024-02-16T14:12:48.291Z,96648.63
2024-02-16T14:15:17.501Z,96654.66
2024-02-16T14:17:45.639Z,96657.69
2024-02-16T14:20:13.945Z,96662.63
2024-02-16T14:22:41.939Z,96660.13
2024-02-16T14:25:11.771Z,96656.16
2024-02-16T14:27:42.831Z,96666.66
2024-02-16T14:30:11.917Z,96661.88
2024-02-16T14:32:39.950Z,96664.69
2024-02-16T14:35:08.531Z,96657.13
2024-02-16T14:37:36.877Z,96665.69
2024-02-16T14:40:06.329Z,96670.31
2024-02-16T14:42:34.346Z,96673.97
2024-02-16T14:45:04.633Z,96671.91
2024-02-16T14:47:32.778Z,96674.25
2024-02-16T14:50:00.773Z,96673.97
2024-02-16T14:52:30.227Z,96672.06
2024-02-16T14:54:58.704Z,96676.69
2024-02-16T14:57:26.651Z,96675.41
2024-02-16T14:59:56.712Z,96680.91
2024-02-16T15:02:26.594Z,96685.44
2024-02-16T15:04:55.112Z,96675.19
2024-02-16T15:07:23.001Z,96682.34
2024-02-16T15:09:50.947Z,96685.31
2024-02-16T15:12:20.264Z,96681.63
2024-02-16T15:14:49.210Z,96685.13
2024-02-16T15:17:17.010Z,96686.28
2024-02-16T15:19:46.393Z,96694.44
2024-02-16T15:22:14.585Z,96698.06
2024-02-16T15:24:42.694Z,96700.03
2024-02-16T15:27:11.624Z,96691.28
2024-02-16T15:29:39.531Z,96694.09
2024-02-16T15:32:07.771Z,96698.97
2024-02-16T15:34:35.643Z,96701.41
2024-02-16T15:37:05.281Z,96700.09
2024-02-16T15:39:33.130Z,96710.50
2024-02-16T15:42:01.111Z,96708.41
2024-02-16T15:44:29.156Z,96714.72
2024-02-16T15:46:57.162Z,96717.84
2024-02-16T15:49:25.245Z,96717.97
2024-02-16T15:51:53.199Z,96717.28
2024-02-16T15:54:26.869Z,96724.03
2024-02-16T15:56:56.926Z,96720.06
2024-02-16T15:59:26.635Z,96733.69
2024-02-16T16:01:54.494Z,96738.31
2024-02-16T16:04:22.498Z,96738.31
2024-02-16T16:06:50.643Z,96744.91
2024-02-16T16:09:19.695Z,96744.09
2024-02-16T16:11:49.080Z,96744.09
2024-02-16T16:14:17.446Z,96744.25
2024-02-16T16:16:45.267Z,96740.50
2024-02-16T16:19:13.347Z,96745.97
2024-02-16T16:21:41.539Z,96742.06
2024-02-16T16:24:14.368Z,96751.31
2024-02-16T16:26:44.206Z,96748.75
2024-02-16T16:29:16.250Z,96754.91
2024-02-16T16:31:44.125Z,96763.34
2024-02-16T16:34:12.240Z,96755.78
2024-02-16T16:36:40.974Z,96763.09
2024-02-16T16:39:09.082Z,96761.69
2024-02-16T16:41:36.933Z,96771.66
2024-02-16T16:44:04.910Z,96781.72
2024-02-16T16:46:34.313Z,96778.53
2024-02-16T16:49:02.219Z,96798.41
2024-02-16T16:51:30.730Z,96795.88
2024-02-16T16:53:58.773Z,96799.22
2024-02-16T16:56:26.876Z,96802.88
2024-02-16T16:58:55.033Z,96809.63
2024-02-16T17:01:23.523Z,96816.91
2024-02-16T17:03:54.861Z,96820.38
2024-02-16T17:06:24.709Z,96820.81
2024-02-16T17:08:53.134Z,96818.44
2024-02-16T17:11:24.194Z,96826.97
2024-02-16T17:13:52.768Z,96831.28
2024-02-16T17:16:21.654Z,96833.94
2024-02-16T17:18:50.138Z,96836.78
2024-02-16T17:21:20.220Z,96840.09
2024-02-16T17:23:50.865Z,96844.31
2024-02-16T17:26:19.599Z,96844.47
2024-02-16T17:28:47.920Z,96848.06
2024-02-16T17:31:16.149Z,96853.81
2024-02-16T17:33:45.374Z,96855.63
2024-02-16T17:36:14.813Z,96861.38
2024-02-16T17:38:44.517Z,96867.66
2024-02-16T17:41:12.968Z,96860.81
2024-02-16T17:43:45.795Z,96870.31
2024-02-16T17:46:14.099Z,96876.59
2024-02-16T17:48:42.465Z,96877.00
2024-02-16T17:51:11.510Z,96879.81
2024-02-16T17:53:40.587Z,96883.59
2024-02-16T17:56:11.598Z,96885.16
2024-02-16T17:58:39.927Z,96881.91
2024-02-16T18:01:08.300Z,96886.09
2024-02-16T18:03:36.801Z,96889.03
2024-02-16T18:06:05.445Z,96891.69
2024-02-16T18:08:33.907Z,96896.88
2024-02-16T18:11:01.901Z,96898.81
2024-02-16T18:13:31.063Z,96901.47
2024-02-16T18:16:00.785Z,96909.16
2024-02-16T18:18:29.372Z,96914.88
2024-02-16T18:20:57.422Z,96909.44
2024-02-16T18:23:25.593Z,96913.75
2024-02-16T18:25:53.737Z,96912.06
2024-02-16T18:28:26.539Z,96913.84
2024-02-16T18:31:02.990Z,96915.81
2024-02-16T18:33:31.337Z,96920.16
2024-02-16T18:35:59.665Z,96919.00
2024-02-16T18:38:27.591Z,96914.81
2024-02-16T18:40:55.452Z,96928.94
2024-02-16T18:43:23.581Z,96924.31
2024-02-16T18:45:51.439Z,96929.63
2024-02-16T18:48:25.430Z,96927.22
2024-02-16T18:50:53.482Z,96932.06
2024-02-16T18:53:21.820Z,96928.47
2024-02-16T18:55:50.720Z,96932.47
2024-02-16T18:58:18.669Z,96930.53
2024-02-16T19:00:46.726Z,96940.31
2024-02-16T19:03:15.544Z,96939.47
2024-02-16T19:05:45.034Z,96942.53
2024-02-16T19:08:13.524Z,96940.84
2024-02-16T19:10:42.990Z,96944.47
2024-02-16T19:13:11.130Z,96947.00
2024-02-16T19:15:39.065Z,96946.13
2024-02-16T19:18:08.873Z,96951.59
2024-02-16T19:20:36.959Z,96943.03
2024-02-16T19:23:08.336Z,96946.09
2024-02-16T19:25:36.195Z,96945.53
2024-02-16T19:28:04.070Z,96960.47
2024-02-16T19:30:31.928Z,96954.91
2024-02-16T19:32:59.876Z,96962.63
2024-02-16T19:35:27.831Z,96962.84
2024-02-16T19:37:55.701Z,96965.94
2024-02-16T19:40:25.528Z,96967.47
2024-02-16T19:42:53.619Z,96974.59
2024-02-16T19:45:28.452Z,96973.31
2024-02-16T19:47:57.235Z,96977.06
2024-02-16T19:50:26.013Z,96972.84
2024-02-16T19:52:54.123Z,96984.44
2024-02-16T19:55:22.105Z,96987.94
2024-02-16T19:57:52.070Z,96982.50
2024-02-16T20:00:21.579Z,96991.09
2024-02-16T20:02:49.608Z,96988.84
2024-02-16T20:05:19.312Z,96991.50
2024-02-16T20:07:47.904Z,96987.84
2024-02-16T20:10:16.894Z,96993.31
2024-02-16T20:12:45.409Z,96998.47
2024-02-16T20:15:16.137Z,96994.03
2024-02-16T20:17:45.543Z,97003.09
2024-02-16T20:20:14.185Z,97000.44
2024-02-16T20:22:42.001Z,97004.03
2024-02-16T20:25:10.117Z,96999.72
2024-02-16T20:27:38.225Z,97005.97
2024-02-16T20:30:07.450Z,97004.03
2024-02-16T20:32:37.055Z,97008.63
2024-02-16T20:35:06.287Z,97012.78
2024-02-16T20:37:34.254Z,97008.44
2024-02-16T20:40:02.211Z,97018.06
2024-02-16T20:42:31.376Z,97025.00
2024-02-16T20:45:00.003Z,97022.47
2024-02-16T20:47:28.419Z,97025.13
2024-02-16T20:49:58.146Z,97025.03
2024-02-16T20:52:26.255Z,97029.50
2024-02-16T20:54:54.740Z,97037.97
2024-02-16T20:57:22.940Z,97031.22
2024-02-16T20:59:50.935Z,97041.44
2024-02-16T21:02:20.575Z,97039.44
2024-02-16T21:04:48.994Z,97041.09
2024-02-16T21:07:18.876Z,97040.38
2024-02-16T21:09:47.857Z,97042.81
2024-02-16T21:12:16.022Z,97052.81
2024-02-16T21:14:44.635Z,97054.34
2024-02-16T21:17:12.680Z,97046.78
2024-02-16T21:19:40.617Z,97055.72
2024-02-16T21:22:09.352Z,97067.03
2024-02-16T21:24:38.872Z,97063.78
2024-02-16T21:27:07.097Z,97069.81
2024-02-16T21:29:34.964Z,97073.66
2024-02-16T21:32:03.022Z,97084.28
2024-02-16T21:34:31.318Z,97076.56
2024-02-16T21:36:59.387Z,97071.53
2024-02-16T21:39:27.658Z,97079.47
2024-02-16T21:41:57.134Z,97077.28
2024-02-16T21:44:25.277Z,97081.16
2024-02-16T21:46:53.328Z,97082.97
2024-02-16T21:49:22.820Z,97092.00
2024-02-16T21:51:51.154Z,97086.72
2024-02-16T21:54:19.583Z,97098.16
2024-02-16T21:56:47.501Z,97098.97
2024-02-16T21:59:16.682Z,97102.16
2024-02-16T22:01:44.779Z,97104.91
2024-02-16T22:04:12.926Z,97104.66
2024-02-16T22:06:41.146Z,97104.91
2024-02-16T22:09:10.379Z,97114.94
2024-02-16T22:11:39.061Z,97112.28
2024-02-16T22:14:07.068Z,97118.41
2024-02-16T22:16:37.999Z,97124.91
2024-02-16T22:19:06.236Z,97117.94
2024-02-16T22:21:39.677Z,97128.91
2024-02-16T22:24:11.391Z,97126.00
2024-02-16T22:26:41.079Z,97125.53
2024-02-16T22:29:09.362Z,97129.25
2024-02-16T22:31:42.273Z,97130.47
2024-02-16T22:34:12.578Z,97141.91
2024-02-16T22:36:41.398Z,97129.38
2024-02-16T22:39:10.174Z,97128.53
2024-02-16T22:41:38.655Z,97137.22
2024-02-16T22:44:06.844Z,97140.94
2024-02-16T22:46:34.997Z,97139.34
2024-02-16T22:49:05.072Z,97139.13
2024-02-16T22:51:39.648Z,97151.41
2024-02-16T22:54:11.754Z,97144.28
2024-02-16T22:56:40.176Z,97146.94
2024-02-16T22:59:08.247Z,97155.63
2024-02-16T23:01:36.195Z,97152.22
2024-02-16T23:04:08.078Z,97157.75
2024-02-16T23:06:36.263Z,97155.81
2024-02-16T23:09:09.395Z,97157.00
2024-02-16T23:11:37.972Z,97158.47
2024-02-16T23:14:07.211Z,97164.84
2024-02-16T23:16:35.049Z,97154.97
2024-02-16T23:19:03.194Z,97165.69
2024-02-16T23:21:32.629Z,97160.38
2024-02-16T23:24:00.645Z,97170.03
2024-02-16T23:26:28.507Z,97172.81
2024-02-16T23:28:56.364Z,97173.53
2024-02-16T23:31:24.241Z,97177.38
2024-02-16T23:33:52.120Z,97175.56
2024-02-16T23:36:20.186Z,97183.28
2024-02-16T23:38:49.543Z,97180.19
2024-02-16T23:41:18.385Z,97190.69
2024-02-16T23:43:46.281Z,97184.78
2024-02-16T23:46:14.509Z,97185.81
2024-02-16T23:48:42.669Z,97186.06
2024-02-16T23:51:10.693Z,97192.81
2024-02-16T23:53:38.825Z,97190.28
2024-02-16T23:56:08.435Z,97196.66
2024-02-16T23:58:36.235Z,97188.69
